createdAt,value
2019-04-23T00:02:23.274Z,9.98
2019-04-23T00:04:53.059Z,9.90
2019-04-23T00:07:37.189Z,9.89
2019-04-23T00:10:03.440Z,9.91
2019-04-23T00:12:40.496Z,9.86
2019-04-23T00:17:38.970Z,9.90
2019-04-23T00:22:39.843Z,9.79
2019-04-23T00:25:38.027Z,9.78
2019-04-23T00:27:50.072Z,9.69
2019-04-23T00:30:24.334Z,9.74
2019-04-23T00:32:51.622Z,9.60
2019-04-23T00:35:23.196Z,9.60
2019-04-23T00:37:51.462Z,9.61
2019-04-23T00:40:25.941Z,9.55
2019-04-23T00:42:53.315Z,9.50
2019-04-23T00:45:32.978Z,9.40
2019-04-23T00:47:54.973Z,9.44
2019-04-23T00:53:19.429Z,9.46
2019-04-23T00:55:33.074Z,9.42
2019-04-23T00:58:08.585Z,9.41
2019-04-23T01:00:42.402Z,9.35
2019-04-23T01:03:15.419Z,9.38
2019-04-23T01:08:13.514Z,9.28
2019-04-23T01:10:52.548Z,9.25
2019-04-23T01:13:26.074Z,9.23
2019-04-23T01:15:55.492Z,9.31
2019-04-23T01:18:38.167Z,9.41
2019-04-23T01:20:53.753Z,9.29
2019-04-23T01:23:21.924Z,9.16
2019-04-23T01:26:00.295Z,9.20
2019-04-23T01:28:49.727Z,9.19
2019-04-23T01:34:04.639Z,9.14
2019-04-23T01:36:34.437Z,9.26
2019-04-23T01:38:56.029Z,9.23
2019-04-23T01:41:26.978Z,9.30
2019-04-23T01:43:53.538Z,9.28
2019-04-23T01:46:21.772Z,9.23
2019-04-23T01:49:01.646Z,9.29
2019-04-23T01:51:26.493Z,9.30
2019-04-23T01:53:56.694Z,9.25
2019-04-23T01:56:30.707Z,9.30
2019-04-23T02:01:39.881Z,9.42
2019-04-23T02:04:03.665Z,9.51
2019-04-23T02:06:36.795Z,9.47
2019-04-23T02:09:05.022Z,9.43
2019-04-23T02:11:37.794Z,9.47
2019-04-23T02:14:26.773Z,9.57
2019-04-23T02:16:40.786Z,9.55
2019-04-23T02:19:17.013Z,9.62
2019-04-23T02:21:47.601Z,9.58
2019-04-23T02:24:18.238Z,9.44
2019-04-23T02:26:48.690Z,9.42
2019-04-23T02:29:29.886Z,9.44
2019-04-23T02:39:49.833Z,9.51
2019-04-23T02:44:24.173Z,9.46
2019-04-23T02:47:12.599Z,9.48
2019-04-23T02:49:44.327Z,9.25
2019-04-23T02:52:08.869Z,9.17
2019-04-23T02:54:46.437Z,9.12
2019-04-23T02:57:08.757Z,9.15
2019-04-23T03:02:37.373Z,8.91
2019-04-23T03:04:50.026Z,8.84
2019-04-23T03:07:33.279Z,8.93
2019-04-23T03:09:56.433Z,8.87
2019-04-23T03:12:43.366Z,8.87
2019-04-23T03:14:58.856Z,8.91
2019-04-23T03:17:52.313Z,8.84
2019-04-23T03:20:21.821Z,8.81
2019-04-23T03:25:26.198Z,8.93
2019-04-23T03:27:56.223Z,8.95
2019-04-23T03:31:57.743Z,8.99
2019-04-23T03:38:45.738Z,9.11
2019-04-23T03:41:17.176Z,9.19
2019-04-23T03:46:12.074Z,9.29
2019-04-23T03:48:35.731Z,9.33
2019-04-23T03:50:53.186Z,9.25
2019-04-23T03:53:52.295Z,9.40
2019-04-23T03:56:17.819Z,9.44
2019-04-23T03:58:39.424Z,9.51
2019-04-23T04:01:17.688Z,9.54
2019-04-23T04:06:26.865Z,9.58
2019-04-23T04:08:50.713Z,9.44
2019-04-23T04:11:33.740Z,9.42
2019-04-23T04:19:19.335Z,9.42
2019-04-23T04:21:39.768Z,9.42
2019-04-23T04:26:51.682Z,9.47
2019-04-23T04:29:20.868Z,9.59
2019-04-23T04:34:50.091Z,9.47
2019-04-23T04:37:18.459Z,9.52
2019-04-23T04:39:37.623Z,9.53
2019-04-23T04:45:30.407Z,9.73
2019-04-23T04:46:59.275Z,9.73
2019-04-23T04:49:44.105Z,9.88
2019-04-23T04:52:34.275Z,9.92
2019-04-23T04:54:24.594Z,10.05
2019-04-23T04:57:20.837Z,10.18
2019-04-23T05:02:28.410Z,10.50
2019-04-23T05:07:27.886Z,11.15
2019-04-23T05:12:36.061Z,11.64
2019-04-23T05:15:00.789Z,11.78
2019-04-23T05:17:54.056Z,11.61
2019-04-23T05:20:14.631Z,11.62
2019-04-23T05:22:52.631Z,11.71
2019-04-23T05:25:12.403Z,11.53
2019-04-23T05:28:24.980Z,11.35
2019-04-23T05:30:29.789Z,10.96
2019-04-23T05:33:02.705Z,11.07
2019-04-23T05:35:41.337Z,10.96
2019-04-23T05:38:22.690Z,11.06
2019-04-23T05:40:45.347Z,10.89
2019-04-23T05:42:58.759Z,10.97
2019-04-23T05:45:30.038Z,10.84
2019-04-23T05:48:09.879Z,10.86
2019-04-23T05:50:44.419Z,11.26
2019-04-23T05:53:05.599Z,11.22
2019-04-23T05:55:36.826Z,11.06
2019-04-23T05:58:08.859Z,11.15
2019-04-23T06:00:45.811Z,11.15
2019-04-23T06:05:49.806Z,11.85
2019-04-23T06:08:18.480Z,11.73
2019-04-23T06:10:47.496Z,11.53
2019-04-23T06:13:18.655Z,11.75
2019-04-23T06:16:12.292Z,11.79
2019-04-23T06:18:24.815Z,11.75
2019-04-23T06:20:55.553Z,12.10
2019-04-23T06:23:28.776Z,12.30
2019-04-23T06:26:15.041Z,12.48
2019-04-23T06:28:27.597Z,12.42
2019-04-23T06:33:31.034Z,12.81
2019-04-23T06:36:07.056Z,12.83
2019-04-23T06:38:41.258Z,12.96
2019-04-23T06:41:06.768Z,12.73
2019-04-23T06:43:47.142Z,12.21
2019-04-23T06:46:16.693Z,12.34
2019-04-23T06:48:42.016Z,11.98
2019-04-23T06:51:24.008Z,12.29
2019-04-23T06:53:43.131Z,12.92
2019-04-23T06:56:20.601Z,13.33
2019-04-23T06:59:06.093Z,13.25
2019-04-23T07:01:17.583Z,13.15
2019-04-23T07:03:50.639Z,13.24
2019-04-23T07:11:28.712Z,13.42
2019-04-23T07:16:27.803Z,13.71
2019-04-23T07:19:04.334Z,13.77
2019-04-23T07:21:42.161Z,13.79
2019-04-23T07:26:36.047Z,13.30
2019-04-23T07:29:00.529Z,13.03
2019-04-23T07:31:37.939Z,12.85
2019-04-23T07:36:41.144Z,13.02
2019-04-23T07:39:27.478Z,13.19
2019-04-23T07:42:11.154Z,12.94
2019-04-23T07:47:47.871Z,12.92
2019-04-23T07:50:09.867Z,13.51
2019-04-23T07:52:41.030Z,13.93
2019-04-23T07:55:13.760Z,13.69
2019-04-23T07:57:35.165Z,14.04
2019-04-23T08:00:29.739Z,13.89
2019-04-23T08:05:21.314Z,14.20
2019-04-23T08:07:45.327Z,14.31
2019-04-23T08:10:10.674Z,14.02
2019-04-23T08:12:49.286Z,14.20
2019-04-23T08:15:14.902Z,14.58
2019-04-23T08:17:41.511Z,14.64
2019-04-23T08:20:14.166Z,14.79
2019-04-23T08:22:45.461Z,14.87
2019-04-23T08:25:29.942Z,15.20
2019-04-23T08:27:57.452Z,15.18
2019-04-23T08:30:28.940Z,15.30
2019-04-23T08:32:57.124Z,15.07
2019-04-23T08:35:26.770Z,15.36
2019-04-23T08:38:09.515Z,15.46
2019-04-23T08:40:36.975Z,15.42
2019-04-23T08:43:27.934Z,15.43
2019-04-23T08:45:46.221Z,15.34
2019-04-23T08:48:20.908Z,15.61
2019-04-23T08:51:11.045Z,16.04
2019-04-23T08:58:27.303Z,15.82
2019-04-23T09:03:25.300Z,15.96
2019-04-23T09:06:13.815Z,16.17
2019-04-23T09:08:27.743Z,15.75
2019-04-23T09:11:04.740Z,14.65
2019-04-23T09:13:52.478Z,14.71
2019-04-23T09:16:16.291Z,14.44
2019-04-23T09:21:02.041Z,14.25
2019-04-23T09:26:02.433Z,13.93
2019-04-23T09:31:45.688Z,14.39
2019-04-23T09:34:07.967Z,14.13
2019-04-23T09:36:40.590Z,14.71
2019-04-23T09:39:17.038Z,14.65
2019-04-23T09:41:42.338Z,14.83
2019-04-23T09:49:46.667Z,15.77
2019-04-23T09:52:21.894Z,15.58
2019-04-23T09:55:01.677Z,15.50
2019-04-23T09:57:22.899Z,15.59
2019-04-23T09:59:52.914Z,15.98
2019-04-23T10:02:20.111Z,15.81
2019-04-23T10:04:39.845Z,15.71
2019-04-23T10:07:12.646Z,15.97
2019-04-23T10:09:30.042Z,16.27
2019-04-23T10:12:01.041Z,16.22
2019-04-23T10:14:30.651Z,15.92
2019-04-23T10:17:00.158Z,15.63
2019-04-23T10:19:30.754Z,15.50
2019-04-23T10:22:01.675Z,15.82
2019-04-23T10:24:32.827Z,15.73
2019-04-23T10:27:02.325Z,16.15
2019-04-23T10:29:36.476Z,16.51
2019-04-23T10:32:07.537Z,16.29
2019-04-23T10:34:44.946Z,16.62
2019-04-23T10:37:09.556Z,16.44
2019-04-23T10:39:43.026Z,15.74
2019-04-23T10:42:11.957Z,16.12
2019-04-23T10:44:52.151Z,16.87
2019-04-23T10:48:12.121Z,16.38
2019-04-23T10:53:26.616Z,16.19
2019-04-23T10:58:15.798Z,16.64
2019-04-23T11:03:36.090Z,16.92
2019-04-23T11:06:02.540Z,16.58
2019-04-23T11:08:20.640Z,16.44
2019-04-23T11:10:50.226Z,16.40
2019-04-23T11:16:12.681Z,17.12
2019-04-23T11:18:38.322Z,17.08
2019-04-23T11:21:00.642Z,17.13
2019-04-23T11:23:31.248Z,17.59
2019-04-23T11:26:06.600Z,17.54
2019-04-23T11:28:33.284Z,17.68
2019-04-23T11:31:15.697Z,17.53
2019-04-23T11:33:37.905Z,17.32
2019-04-23T11:36:43.575Z,17.18
2019-04-23T11:41:20.802Z,17.45
2019-04-23T11:43:53.729Z,17.69
2019-04-23T11:46:43.521Z,18.28
2019-04-23T11:49:19.850Z,18.02
2019-04-23T11:51:51.382Z,17.58
2019-04-23T11:56:35.551Z,17.83
2019-04-23T12:04:14.060Z,17.12
2019-04-23T12:07:00.076Z,17.53
2019-04-23T12:09:29.238Z,17.30
2019-04-23T12:17:08.046Z,16.78
2019-04-23T12:23:00.580Z,16.32
2019-04-23T12:24:58.568Z,16.14
2019-04-23T12:27:08.155Z,16.49
2019-04-23T12:32:42.967Z,16.67
2019-04-23T12:40:05.899Z,16.65
2019-04-23T12:42:48.726Z,16.66
2019-04-23T12:55:19.351Z,16.49
2019-04-23T12:57:42.450Z,16.36
2019-04-23T13:00:17.343Z,16.03
2019-04-23T13:02:44.217Z,16.06
2019-04-23T13:05:21.628Z,16.23
2019-04-23T13:10:14.801Z,15.98
2019-04-23T13:15:15.800Z,16.08
2019-04-23T13:20:23.612Z,16.17
2019-04-23T13:22:59.745Z,16.33
2019-04-23T13:25:45.633Z,16.63
2019-04-23T13:30:47.259Z,16.62
2019-04-23T13:33:26.764Z,16.72
2019-04-23T13:35:55.310Z,16.65
2019-04-23T13:38:29.807Z,16.63
2019-04-23T13:40:59.637Z,16.61
2019-04-23T13:43:30.168Z,16.74
2019-04-23T13:48:32.936Z,16.77
2019-04-23T13:51:14.227Z,16.89
2019-04-23T13:55:53.418Z,16.87
2019-04-23T13:58:37.385Z,16.74
2019-04-23T14:03:48.260Z,16.58
2019-04-23T14:08:46.989Z,16.89
2019-04-23T14:11:10.809Z,16.76
2019-04-23T14:13:59.715Z,16.61
2019-04-23T14:16:22.652Z,16.78
2019-04-23T14:21:20.527Z,16.31
2019-04-23T14:24:03.264Z,16.15
2019-04-23T14:29:02.080Z,15.82
2019-04-23T14:31:16.674Z,15.69
2019-04-23T14:34:00.185Z,15.37
2019-04-23T14:44:00.688Z,15.04
2019-04-23T14:54:23.529Z,14.62
2019-04-23T14:56:51.519Z,14.55
2019-04-23T15:04:01.985Z,14.37
2019-04-23T15:06:43.696Z,14.30
2019-04-23T15:09:36.765Z,14.31
2019-04-23T15:11:59.365Z,14.31
2019-04-23T15:14:10.221Z,14.37
2019-04-23T15:16:46.041Z,14.49
2019-04-23T15:24:23.283Z,14.40
2019-04-23T15:27:44.638Z,14.26
2019-04-23T15:29:04.494Z,14.22
2019-04-23T15:31:55.527Z,14.27
2019-04-23T15:42:08.841Z,14.11
2019-04-23T15:44:23.130Z,14.02
2019-04-23T15:47:01.885Z,14.01
2019-04-23T15:52:06.697Z,14.06
2019-04-23T16:01:43.463Z,13.82
2019-04-23T16:04:13.130Z,13.77
2019-04-23T16:06:43.516Z,13.87
2019-04-23T16:09:36.460Z,13.94
2019-04-23T16:12:06.615Z,13.98
2019-04-23T16:14:49.406Z,13.96
2019-04-23T16:17:20.929Z,13.87
2019-04-23T16:22:34.959Z,13.87
2019-04-23T16:25:09.859Z,13.82
2019-04-23T16:27:29.318Z,13.83
2019-04-23T16:30:15.631Z,13.91
2019-04-23T16:32:54.005Z,13.79
2019-04-23T16:35:31.002Z,13.66
2019-04-23T16:38:01.804Z,13.63
2019-04-23T16:43:02.095Z,13.56
2019-04-23T16:45:23.045Z,13.50
2019-04-23T16:47:58.951Z,13.55
2019-04-23T16:50:28.968Z,13.46
2019-04-23T16:53:02.973Z,13.32
2019-04-23T16:55:24.025Z,13.27
2019-04-23T16:58:01.960Z,13.23
2019-04-23T17:00:31.557Z,13.16
2019-04-23T17:03:12.431Z,13.16
2019-04-23T17:08:30.661Z,13.00
2019-04-23T17:10:38.487Z,13.07
2019-04-23T17:13:25.600Z,12.99
2019-04-23T17:15:48.658Z,12.96
2019-04-23T17:18:11.654Z,12.99
2019-04-23T17:20:48.874Z,13.01
2019-04-23T17:23:29.461Z,12.91
2019-04-23T17:25:48.365Z,12.90
2019-04-23T17:28:20.202Z,12.85
2019-04-23T17:39:05.357Z,12.78
2019-04-23T17:44:18.838Z,12.66
2019-04-23T17:46:37.371Z,12.76
2019-04-23T17:49:14.173Z,12.75
2019-04-23T17:51:31.000Z,12.70
2019-04-23T17:54:19.349Z,12.64
2019-04-23T17:59:23.548Z,12.56
2019-04-23T18:01:47.342Z,12.52
2019-04-23T18:04:33.266Z,12.48
2019-04-23T18:09:25.506Z,12.37
2019-04-23T18:11:54.358Z,12.35
2019-04-23T18:14:34.657Z,12.33
2019-04-23T18:19:23.092Z,12.28
2019-04-23T18:22:18.664Z,12.25
2019-04-23T18:25:05.255Z,12.16
2019-04-23T18:27:35.925Z,12.22
2019-04-23T18:30:11.826Z,12.13
2019-04-23T18:32:49.458Z,12.12
2019-04-23T18:35:19.341Z,12.14
2019-04-23T18:37:44.172Z,12.05
2019-04-23T18:40:08.639Z,12.06
2019-04-23T18:42:45.039Z,12.08
2019-04-23T18:45:22.835Z,12.09
2019-04-23T18:47:50.368Z,12.03
2019-04-23T18:50:24.169Z,12.04
2019-04-23T18:55:41.235Z,11.98
2019-04-23T18:57:50.459Z,12.01
2019-04-23T19:00:37.231Z,12.01
2019-04-23T19:03:10.542Z,12.01
2019-04-23T19:06:07.380Z,11.94
2019-04-23T19:11:25.731Z,11.95
2019-04-23T19:13:50.982Z,11.94
2019-04-23T19:16:24.480Z,11.85
2019-04-23T19:18:56.712Z,11.84
2019-04-23T19:26:49.696Z,11.67
2019-04-23T19:28:56.103Z,11.64
2019-04-23T19:31:47.592Z,11.72
2019-04-23T19:39:17.639Z,11.53
2019-04-23T19:44:15.906Z,11.55
2019-04-23T19:46:58.256Z,11.52
2019-04-23T19:49:25.116Z,11.49
2019-04-23T19:54:32.331Z,11.44
2019-04-23T19:56:55.135Z,11.49
2019-04-23T19:59:23.576Z,11.52
2019-04-23T20:04:36.424Z,11.36
2019-04-23T20:12:01.124Z,11.56
2019-04-23T20:14:31.808Z,11.53
2019-04-23T20:17:23.109Z,11.52
2019-04-23T20:19:37.379Z,11.56
2019-04-23T20:22:06.189Z,11.53
2019-04-23T20:24:57.760Z,11.52
2019-04-23T20:29:54.721Z,11.46
2019-04-23T20:34:56.403Z,11.49
2019-04-23T20:37:13.940Z,11.48
2019-04-23T20:39:50.588Z,11.57
2019-04-23T20:44:55.554Z,11.56
2019-04-23T20:47:15.574Z,11.68
2019-04-23T20:49:51.880Z,11.67
2019-04-23T20:52:37.590Z,11.75
2019-04-23T21:05:21.314Z,11.68
2019-04-23T21:07:59.085Z,11.64
2019-04-23T21:15:26.479Z,11.66
2019-04-23T21:17:59.553Z,11.72
2019-04-23T21:20:35.760Z,11.76
2019-04-23T21:25:30.276Z,11.50
2019-04-23T21:28:34.063Z,11.33
2019-04-23T21:39:04.209Z,11.06
2019-04-23T21:46:24.068Z,10.98
2019-04-23T21:49:08.699Z,10.99
2019-04-23T21:51:40.779Z,10.97
2019-04-23T21:53:53.169Z,10.98
2019-04-23T21:56:23.296Z,10.98
2019-04-23T21:58:57.976Z,11.03
2019-04-23T22:01:36.952Z,11.01
2019-04-23T22:04:08.845Z,10.98
2019-04-23T22:11:48.463Z,10.99
2019-04-23T22:16:44.477Z,11.07
2019-04-23T22:21:47.359Z,11.05
2019-04-23T22:24:07.183Z,11.07
2019-04-23T22:29:17.178Z,10.90
2019-04-23T22:31:41.816Z,10.86
2019-04-23T22:36:48.277Z,10.96
2019-04-23T22:41:49.105Z,11.01
2019-04-23T22:49:28.686Z,10.99
2019-04-23T22:52:03.835Z,10.86
2019-04-23T22:54:31.952Z,10.85
2019-04-23T22:56:56.652Z,10.89
2019-04-23T22:59:48.513Z,10.78
2019-04-23T23:02:14.859Z,10.78
2019-04-23T23:04:41.016Z,10.72
2019-04-23T23:09:46.476Z,10.77
2019-04-23T23:12:14.434Z,10.75
2019-04-23T23:14:45.915Z,10.61
2019-04-23T23:17:15.566Z,10.52
2019-04-23T23:19:50.427Z,10.56
2019-04-23T23:22:20.072Z,10.59
2019-04-23T23:24:46.083Z,10.62
2019-04-23T23:27:19.670Z,10.58
2019-04-23T23:30:01.055Z,10.51
2019-04-23T23:32:27.351Z,10.34
2019-04-23T23:37:19.196Z,10.38
2019-04-23T23:40:00.311Z,10.35
2019-04-23T23:42:27.630Z,10.38
2019-04-23T23:45:01.976Z,10.40
2019-04-23T23:47:18.248Z,10.28
2019-04-23T23:50:01.012Z,10.23
2019-04-23T23:52:35.060Z,10.23
2019-04-23T23:55:03.938Z,10.18
